Flugplatz Eichstätt

Für EDPE sind keine METAR/TAF Berichte vorhanden.
Es werden die Flugwettermeldungen vom Flugplatz Neuburg Airport in 18 km Entfernung angezeigt.

Bericht für ETSN

vom 23.05. um 18:20 UTC

Wind 2 kt aus 200°

Sichtweite 10 km oder mehr

gering bewölkt in 5500 ft

aufgebrochene Bewölkung in 30000 ft

Temperatur 17.0°C

Taupunkt 7.0°C

Luftfeuchtigkeit 52%

Luftdruck 1017 hPa

ETSN 231820Z 20002KT 9999 FEW055 BKN300 17/07 Q1017 BLACKBLU+
Keine Prognose (TAF) verfügbar.
Impressum